createdAt,value
2018-03-02T00:02:05.110Z,-7.60
2018-03-02T00:04:31.477Z,-7.80
2018-03-02T00:06:57.814Z,-7.70
2018-03-02T00:09:24.173Z,-7.90
2018-03-02T00:11:51.232Z,-7.60
2018-03-02T00:14:18.276Z,-7.80
2018-03-02T00:16:45.330Z,-7.70
2018-03-02T00:19:12.399Z,-7.70
2018-03-02T00:21:38.734Z,-7.70
2018-03-02T00:24:05.036Z,-7.60
2018-03-02T00:26:32.084Z,-7.90
2018-03-02T00:28:59.157Z,-8.00
2018-03-02T00:31:25.477Z,-8.10
2018-03-02T00:33:52.543Z,-8.10
2018-03-02T00:36:18.836Z,-8.20
2018-03-02T00:38:45.900Z,-8.20
2018-03-02T00:41:13.017Z,-8.00
2018-03-02T00:43:39.355Z,-8.10
2018-03-02T00:46:06.397Z,-8.20
2018-03-02T00:48:32.710Z,-8.20
2018-03-02T00:50:59.049Z,-8.20
2018-03-02T00:53:25.360Z,-8.30
2018-03-02T00:55:51.669Z,-8.30
2018-03-02T00:58:17.956Z,-8.40
2018-03-02T01:00:45.029Z,-8.20
2018-03-02T01:03:11.330Z,-8.30
2018-03-02T01:05:37.682Z,-8.10
2018-03-02T01:08:04.729Z,-8.30
2018-03-02T01:10:31.458Z,-8.40
2018-03-02T01:12:57.857Z,-8.40
2018-03-02T01:15:24.192Z,-8.50
2018-03-02T01:17:51.294Z,-8.50
2018-03-02T01:20:17.589Z,-8.60
2018-03-02T01:22:44.686Z,-8.40
2018-03-02T01:25:10.992Z,-8.50
2018-03-02T01:27:38.042Z,-8.40
2018-03-02T01:30:05.152Z,-8.30
2018-03-02T01:32:31.593Z,-8.40
2018-03-02T01:34:58.669Z,-8.30
2018-03-02T01:37:25.006Z,-8.40
2018-03-02T01:39:51.391Z,-8.50
2018-03-02T01:42:18.494Z,-8.40
2018-03-02T01:44:44.832Z,-8.50
2018-03-02T01:47:11.170Z,-8.30
2018-03-02T01:49:37.481Z,-8.40
2018-03-02T01:52:03.858Z,-8.50
2018-03-02T01:54:30.139Z,-8.50
2018-03-02T01:56:56.436Z,-8.60
2018-03-02T01:59:22.803Z,-8.50
2018-03-02T02:01:49.137Z,-8.50
2018-03-02T02:04:16.658Z,-8.50
2018-03-02T02:06:43.301Z,-8.50
2018-03-02T02:09:09.922Z,-8.60
2018-03-02T02:11:36.240Z,-8.70
2018-03-02T02:14:02.579Z,-8.80
2018-03-02T02:16:28.916Z,-8.80
2018-03-02T02:18:55.246Z,-8.80
2018-03-02T02:21:22.350Z,-8.60
2018-03-02T02:23:51.560Z,-8.70
2018-03-02T02:26:17.883Z,-8.70
2018-03-02T02:28:44.185Z,-8.80
2018-03-02T02:31:10.537Z,-8.90
2018-03-02T02:33:36.842Z,-8.80
2018-03-02T02:36:03.187Z,-8.90
2018-03-02T02:38:29.535Z,-9.00
2018-03-02T02:40:55.867Z,-8.90
2018-03-02T02:43:22.191Z,-9.10
2018-03-02T02:45:48.482Z,-9.30
2018-03-02T02:48:14.878Z,-9.20
2018-03-02T02:50:41.188Z,-9.10
2018-03-02T02:53:07.517Z,-9.20
2018-03-02T02:55:33.979Z,-9.20
2018-03-02T02:58:00.309Z,-9.30
2018-03-02T03:00:26.930Z,-9.30
2018-03-02T03:02:54.060Z,-9.10
2018-03-02T03:05:20.347Z,-9.10
2018-03-02T03:07:46.681Z,-9.30
2018-03-02T03:10:13.764Z,-9.40
2018-03-02T03:12:40.081Z,-9.50
2018-03-02T03:15:06.409Z,-9.30
2018-03-02T03:17:32.731Z,-9.20
2018-03-02T03:19:59.823Z,-9.20
2018-03-02T03:22:26.146Z,-9.30
2018-03-02T03:24:52.470Z,-9.30
2018-03-02T03:27:18.799Z,-9.30
2018-03-02T03:29:45.090Z,-9.20
2018-03-02T03:32:12.182Z,-9.40
2018-03-02T03:34:38.516Z,-9.50
2018-03-02T03:37:04.850Z,-9.40
2018-03-02T03:39:31.149Z,-9.30
2018-03-02T03:41:57.452Z,-9.30
2018-03-02T03:44:24.496Z,-9.40
2018-03-02T03:46:50.841Z,-9.50
2018-03-02T03:49:17.178Z,-9.40
2018-03-02T03:51:43.496Z,-9.40
2018-03-02T03:54:10.554Z,-9.60
2018-03-02T03:56:37.581Z,-9.60
2018-03-02T03:59:04.654Z,-9.40
2018-03-02T04:01:31.725Z,-9.60
2018-03-02T04:03:58.049Z,-9.70
2018-03-02T04:06:24.598Z,-9.70
2018-03-02T04:08:50.900Z,-9.50
2018-03-02T04:11:17.230Z,-9.50
2018-03-02T04:13:43.563Z,-9.50
2018-03-02T04:16:09.887Z,-9.50
2018-03-02T04:18:36.197Z,-9.60
2018-03-02T04:21:02.520Z,-9.60
2018-03-02T04:23:29.593Z,-9.80
2018-03-02T04:25:55.897Z,-9.80
2018-03-02T04:28:22.251Z,-9.70
2018-03-02T04:30:48.570Z,-9.70
2018-03-02T04:33:14.902Z,-9.80
2018-03-02T04:35:41.330Z,-9.60
2018-03-02T04:38:07.658Z,-9.70
2018-03-02T04:40:34.007Z,-9.70
2018-03-02T04:43:00.416Z,-9.70
2018-03-02T04:45:26.753Z,-10.00
2018-03-02T04:47:53.787Z,-9.90
2018-03-02T04:50:20.129Z,-9.90
2018-03-02T04:52:47.168Z,-9.90
2018-03-02T04:55:13.506Z,-10.00
2018-03-02T04:57:39.966Z,-9.90
2018-03-02T05:00:06.366Z,-9.80
2018-03-02T05:02:34.136Z,-10.10
2018-03-02T05:05:01.191Z,-9.90
2018-03-02T05:07:27.522Z,-10.00
2018-03-02T05:09:53.931Z,-9.90
2018-03-02T05:12:20.308Z,-9.80
2018-03-02T05:14:46.671Z,-9.80
2018-03-02T05:17:13.097Z,-9.90
2018-03-02T05:19:39.527Z,-10.00
2018-03-02T05:22:05.926Z,-9.90
2018-03-02T05:24:32.253Z,-10.20
2018-03-02T05:26:58.561Z,-10.00
2018-03-02T05:29:24.889Z,-10.00
2018-03-02T05:31:51.269Z,-9.90
2018-03-02T05:34:17.742Z,-9.90
2018-03-02T05:36:44.809Z,-10.00
2018-03-02T05:39:11.983Z,-10.00
2018-03-02T05:41:38.371Z,-10.10
2018-03-02T05:44:04.777Z,-10.10
2018-03-02T05:46:31.153Z,-10.10
2018-03-02T05:48:57.468Z,-10.10
2018-03-02T05:51:23.802Z,-10.10
2018-03-02T05:53:50.145Z,-9.80
2018-03-02T05:56:17.176Z,-10.00
2018-03-02T05:58:44.221Z,-9.90
2018-03-02T06:01:11.280Z,-10.00
2018-03-02T06:03:38.316Z,-10.00
2018-03-02T06:06:04.663Z,-10.10
2018-03-02T06:08:30.999Z,-10.00
2018-03-02T06:10:57.322Z,-9.90
2018-03-02T06:13:23.640Z,-9.90
2018-03-02T06:15:50.760Z,-10.10
2018-03-02T06:18:17.074Z,-10.10
2018-03-02T06:20:43.415Z,-9.90
2018-03-02T06:23:09.698Z,-9.90
2018-03-02T06:25:36.018Z,-9.90
2018-03-02T06:28:02.382Z,-9.90
2018-03-02T06:30:28.738Z,-9.70
2018-03-02T06:32:55.120Z,-9.90
2018-03-02T06:35:21.478Z,-9.90
2018-03-02T06:37:47.851Z,-9.70
2018-03-02T06:40:14.525Z,-9.70
2018-03-02T06:42:40.831Z,-9.90
2018-03-02T06:45:07.148Z,-9.80
2018-03-02T06:47:33.483Z,-9.80
2018-03-02T06:49:59.776Z,-9.80
2018-03-02T06:52:26.084Z,-9.80
2018-03-02T06:54:52.389Z,-9.80
2018-03-02T06:57:19.471Z,-9.70
2018-03-02T06:59:45.826Z,-9.70
2018-03-02T07:02:12.176Z,-9.60
2018-03-02T07:04:38.460Z,-9.50
2018-03-02T07:07:04.773Z,-9.60
2018-03-02T07:09:31.094Z,-9.50
2018-03-02T07:11:58.180Z,-9.40
2018-03-02T07:14:24.476Z,-9.40
2018-03-02T07:16:50.820Z,-9.40
2018-03-02T07:19:17.145Z,-9.20
2018-03-02T07:21:43.466Z,-9.10
2018-03-02T07:24:09.812Z,-9.20
2018-03-02T07:26:36.146Z,-9.40
2018-03-02T07:29:02.476Z,-9.30
2018-03-02T07:31:28.829Z,-9.40
2018-03-02T07:33:55.117Z,-9.20
2018-03-02T07:36:21.521Z,-9.00
2018-03-02T07:38:47.869Z,-9.00
2018-03-02T07:41:14.984Z,-9.10
2018-03-02T07:43:41.562Z,-9.20
2018-03-02T07:46:08.605Z,-9.00
2018-03-02T07:48:35.674Z,-9.10
2018-03-02T07:51:01.989Z,-9.10
2018-03-02T07:53:29.080Z,-8.90
2018-03-02T07:55:56.306Z,-9.00
2018-03-02T07:58:22.636Z,-9.00
2018-03-02T08:00:48.950Z,-8.80
2018-03-02T08:03:15.279Z,-8.70
2018-03-02T08:05:41.625Z,-8.80
2018-03-02T08:08:07.963Z,-8.60
2018-03-02T08:10:34.287Z,-8.50
2018-03-02T08:13:01.334Z,-8.40
2018-03-02T08:15:27.663Z,-8.40
2018-03-02T08:17:53.995Z,-8.40
2018-03-02T08:20:21.054Z,-8.30
2018-03-02T08:22:47.349Z,-8.40
2018-03-02T08:25:14.439Z,-8.20
2018-03-02T08:27:40.760Z,-8.20
2018-03-02T08:30:07.053Z,-8.10
2018-03-02T08:32:33.383Z,-8.00
2018-03-02T08:34:59.683Z,-7.80
2018-03-02T08:37:25.991Z,-7.80
2018-03-02T08:39:52.330Z,-7.70
2018-03-02T08:42:18.661Z,-7.70
2018-03-02T08:44:44.970Z,-7.50
2018-03-02T08:47:11.290Z,-7.60
2018-03-02T08:49:37.599Z,-7.50
2018-03-02T08:52:04.669Z,-7.40
2018-03-02T08:54:30.979Z,-7.50
2018-03-02T08:56:58.034Z,-7.50
2018-03-02T08:59:24.401Z,-7.50
2018-03-02T09:01:50.706Z,-7.50
2018-03-02T09:04:17.013Z,-7.40
2018-03-02T09:06:43.368Z,-7.40
2018-03-02T09:09:09.673Z,-7.40
2018-03-02T09:11:36.088Z,-7.30
2018-03-02T09:14:02.464Z,-7.30
2018-03-02T09:16:28.795Z,-7.10
2018-03-02T09:18:55.122Z,-7.20
2018-03-02T09:21:21.482Z,-7.20
2018-03-02T09:23:47.832Z,-7.10
2018-03-02T09:26:14.131Z,-7.10
2018-03-02T09:28:40.547Z,-7.10
2018-03-02T09:31:06.885Z,-6.90
2018-03-02T09:33:33.233Z,-6.90
2018-03-02T09:35:59.539Z,-6.90
2018-03-02T09:38:25.962Z,-6.80
2018-03-02T09:40:52.332Z,-6.60
2018-03-02T09:43:18.652Z,-6.70
2018-03-02T09:45:44.970Z,-6.50
2018-03-02T09:48:12.016Z,-6.60
2018-03-02T09:50:38.392Z,-6.60
2018-03-02T09:53:04.842Z,-6.50
2018-03-02T09:55:31.139Z,-6.40
2018-03-02T09:57:57.431Z,-6.30
2018-03-02T10:00:24.480Z,-6.10
2018-03-02T10:02:50.779Z,-6.20
2018-03-02T10:05:18.605Z,-6.00
2018-03-02T10:07:44.931Z,-6.00
2018-03-02T10:10:11.233Z,-5.90
2018-03-02T10:12:37.540Z,-5.90
2018-03-02T10:15:04.627Z,-6.00
2018-03-02T10:17:30.936Z,-6.00
2018-03-02T10:19:57.247Z,-5.80
2018-03-02T10:22:23.556Z,-5.70
2018-03-02T10:24:49.887Z,-5.60
2018-03-02T10:27:16.194Z,-5.50
2018-03-02T10:29:42.476Z,-5.60
2018-03-02T10:32:09.542Z,-5.50
2018-03-02T10:34:35.847Z,-5.60
2018-03-02T10:37:02.209Z,-5.50
2018-03-02T10:39:28.519Z,-5.30
2018-03-02T10:41:54.868Z,-5.40
2018-03-02T10:44:21.284Z,-5.40
2018-03-02T10:46:48.372Z,-5.20
2018-03-02T10:49:14.732Z,-5.30
2018-03-02T10:51:41.030Z,-5.20
2018-03-02T10:54:07.339Z,-5.30
2018-03-02T10:56:33.662Z,-5.30
2018-03-02T10:58:59.973Z,-5.20
2018-03-02T11:01:27.054Z,-5.10
2018-03-02T11:03:59.569Z,-5.20
2018-03-02T11:06:25.873Z,-5.10
2018-03-02T11:08:52.165Z,-5.00
2018-03-02T11:11:18.533Z,-5.00
2018-03-02T11:13:44.885Z,-4.70
2018-03-02T11:16:11.153Z,-4.70
2018-03-02T11:18:38.233Z,-4.90
2018-03-02T11:21:04.548Z,-5.00
2018-03-02T11:23:30.893Z,-4.80
2018-03-02T11:25:57.182Z,-4.90
2018-03-02T11:28:24.251Z,-4.90
2018-03-02T11:30:50.610Z,-5.00
2018-03-02T11:33:16.927Z,-4.80
2018-03-02T11:35:43.284Z,-4.80
2018-03-02T11:38:09.657Z,-4.90
2018-03-02T11:40:36.711Z,-4.70
2018-03-02T11:43:03.054Z,-4.80
2018-03-02T11:45:29.385Z,-4.70
2018-03-02T11:47:55.717Z,-4.60
2018-03-02T11:50:22.016Z,-4.60
2018-03-02T11:52:49.099Z,-4.60
2018-03-02T11:55:15.440Z,-4.70
2018-03-02T11:57:41.754Z,-4.40
2018-03-02T12:00:08.070Z,-4.30
2018-03-02T12:02:34.418Z,-4.30
2018-03-02T12:05:00.712Z,-4.40
2018-03-02T12:07:28.499Z,-4.60
2018-03-02T12:09:54.859Z,-4.60
2018-03-02T12:12:21.164Z,-4.50
2018-03-02T12:14:47.502Z,-4.50
2018-03-02T12:17:13.800Z,-4.60
2018-03-02T12:19:40.863Z,-4.30
2018-03-02T12:22:07.933Z,-4.20
2018-03-02T12:24:34.681Z,-4.30
2018-03-02T12:27:01.934Z,-4.10
2018-03-02T12:29:28.245Z,-4.20
2018-03-02T12:31:55.300Z,-4.20
2018-03-02T12:34:21.641Z,-4.20
2018-03-02T12:36:47.938Z,-4.10
2018-03-02T12:39:15.024Z,-4.00
2018-03-02T12:41:41.312Z,-4.10
2018-03-02T12:44:07.661Z,-4.10
2018-03-02T12:46:33.982Z,-4.20
2018-03-02T12:49:01.067Z,-3.30
2018-03-02T12:51:27.369Z,-3.40
2018-03-02T12:53:53.664Z,-2.90
2018-03-02T12:56:19.985Z,-2.70
2018-03-02T12:58:47.078Z,-2.00
2018-03-02T13:01:13.373Z,-2.10
2018-03-02T13:03:39.691Z,-1.80
2018-03-02T13:06:05.988Z,-1.80
2018-03-02T13:08:32.284Z,-1.90
2018-03-02T13:10:59.350Z,-1.30
2018-03-02T13:13:25.635Z,-1.40
2018-03-02T13:15:51.949Z,-1.10
2018-03-02T13:18:30.776Z,-1.30
2018-03-02T13:20:57.050Z,-1.10
2018-03-02T13:23:23.655Z,-1.00
2018-03-02T13:25:49.995Z,-0.60
2018-03-02T13:28:28.587Z,-0.60
2018-03-02T13:30:55.605Z,-0.40
2018-03-02T13:33:34.252Z,-0.50
2018-03-02T13:36:00.564Z,-0.60
2018-03-02T13:38:26.869Z,-0.40
2018-03-02T13:41:05.647Z,-0.10
2018-03-02T13:43:31.934Z,0.50
2018-03-02T13:45:58.269Z,0.30
2018-03-02T13:48:37.670Z,0.30
2018-03-02T13:51:03.934Z,0.90
2018-03-02T13:53:30.244Z,1.10
2018-03-02T13:55:56.590Z,1.30
2018-03-02T13:58:22.942Z,1.20
2018-03-02T14:00:49.339Z,1.50
2018-03-02T14:03:28.094Z,1.80
2018-03-02T14:05:55.107Z,1.50
2018-03-02T14:08:21.423Z,1.50
2018-03-02T14:10:48.488Z,2.00
2018-03-02T14:13:14.794Z,1.90
2018-03-02T14:15:41.837Z,2.30
2018-03-02T14:18:08.316Z,2.20
2018-03-02T14:20:36.391Z,2.50
2018-03-02T14:23:05.077Z,2.40
2018-03-02T14:25:35.186Z,3.00
2018-03-02T14:28:01.569Z,2.90
2018-03-02T14:30:27.908Z,3.60
2018-03-02T14:32:54.197Z,3.40
2018-03-02T14:35:20.497Z,3.60
2018-03-02T14:37:46.825Z,4.10
2018-03-02T14:40:13.140Z,4.40
2018-03-02T14:42:39.447Z,4.10
2018-03-02T14:45:05.725Z,3.40
2018-03-02T14:47:32.056Z,3.20
2018-03-02T14:49:58.340Z,2.80
2018-03-02T14:52:25.421Z,2.80
2018-03-02T14:54:51.698Z,2.80
2018-03-02T14:57:18.025Z,3.50
2018-03-02T14:59:44.454Z,4.00
2018-03-02T15:02:10.887Z,4.60
2018-03-02T15:04:37.189Z,4.00
2018-03-02T15:07:03.476Z,4.10
2018-03-02T15:09:30.644Z,4.20
2018-03-02T15:11:56.941Z,4.10
2018-03-02T15:14:23.236Z,3.80
2018-03-02T15:16:49.535Z,3.40
2018-03-02T15:19:16.751Z,3.90
2018-03-02T15:21:43.800Z,3.70
2018-03-02T15:24:10.099Z,3.70
2018-03-02T15:26:36.413Z,3.10
2018-03-02T15:29:02.876Z,2.50
2018-03-02T15:31:29.175Z,3.00
2018-03-02T15:33:55.506Z,3.40
2018-03-02T15:36:21.836Z,3.30
2018-03-02T15:38:48.149Z,3.10
2018-03-02T15:41:14.475Z,3.00
2018-03-02T15:43:40.789Z,2.80
2018-03-02T15:46:07.076Z,2.80
2018-03-02T15:48:33.421Z,3.50
2018-03-02T15:50:59.729Z,3.00
2018-03-02T15:53:26.037Z,2.30
2018-03-02T15:55:52.391Z,2.40
2018-03-02T15:58:18.670Z,2.20
2018-03-02T16:00:45.017Z,2.50
2018-03-02T16:03:12.092Z,1.60
2018-03-02T16:05:38.380Z,1.50
2018-03-02T16:08:05.449Z,1.60
2018-03-02T16:10:31.775Z,1.50
2018-03-02T16:12:58.835Z,1.60
2018-03-02T16:15:25.137Z,1.60
2018-03-02T16:17:52.202Z,0.40
2018-03-02T16:20:18.547Z,0.30
2018-03-02T16:22:44.859Z,0.60
2018-03-02T16:25:11.918Z,0.40
2018-03-02T16:27:38.264Z,0.30
2018-03-02T16:30:04.644Z,0.60
2018-03-02T16:32:31.721Z,-0.10
2018-03-02T16:34:58.088Z,-0.20
2018-03-02T16:37:24.501Z,-1.00
2018-03-02T16:39:50.837Z,-1.60
2018-03-02T16:42:17.120Z,-2.00
2018-03-02T16:44:44.345Z,-2.60
2018-03-02T16:47:10.753Z,-2.70
2018-03-02T16:49:38.664Z,-2.80
2018-03-02T16:52:05.097Z,-2.90
2018-03-02T16:54:31.692Z,-3.10
2018-03-02T16:56:58.021Z,-3.20
2018-03-02T16:59:24.325Z,-3.40
2018-03-02T17:01:50.655Z,-3.50
2018-03-02T17:04:16.985Z,-3.70
2018-03-02T17:06:43.320Z,-3.80
2018-03-02T17:09:09.628Z,-3.70
2018-03-02T17:11:36.318Z,-4.20
2018-03-02T17:14:02.646Z,-4.20
2018-03-02T17:16:28.965Z,-4.50
2018-03-02T17:18:55.346Z,-4.40
2018-03-02T17:21:22.426Z,-4.30
2018-03-02T17:23:48.729Z,-4.40
2018-03-02T17:26:15.776Z,-4.60
2018-03-02T17:28:42.112Z,-4.70
2018-03-02T17:31:08.435Z,-4.50
2018-03-02T17:33:34.752Z,-4.30
2018-03-02T17:36:01.099Z,-4.50
2018-03-02T17:38:28.320Z,-4.70
2018-03-02T17:40:54.626Z,-4.80
2018-03-02T17:43:20.937Z,-4.70
2018-03-02T17:45:47.255Z,-4.70
2018-03-02T17:48:13.560Z,-4.60
2018-03-02T17:50:39.902Z,-4.70
2018-03-02T17:53:06.998Z,-4.90
2018-03-02T17:55:33.298Z,-5.00
2018-03-02T17:57:59.607Z,-4.90
2018-03-02T18:00:26.679Z,-5.00
2018-03-02T18:02:53.016Z,-5.10
2018-03-02T18:05:19.305Z,-5.10
2018-03-02T18:07:45.624Z,-5.10
2018-03-02T18:10:11.933Z,-5.10
2018-03-02T18:12:38.251Z,-5.20
2018-03-02T18:15:04.551Z,-5.00
2018-03-02T18:17:30.866Z,-4.80
2018-03-02T18:19:57.908Z,-5.30
2018-03-02T18:22:27.588Z,-5.40
2018-03-02T18:24:53.939Z,-5.20
2018-03-02T18:27:20.238Z,-5.20
2018-03-02T18:29:46.558Z,-5.30
2018-03-02T18:32:12.917Z,-5.10
2018-03-02T18:34:39.241Z,-5.10
2018-03-02T18:37:07.056Z,-5.60
2018-03-02T18:39:33.364Z,-5.60
2018-03-02T18:41:59.699Z,-5.60
2018-03-02T18:44:26.748Z,-5.60
2018-03-02T18:46:53.807Z,-5.50
2018-03-02T18:49:20.118Z,-5.60
2018-03-02T18:51:47.881Z,-5.70
2018-03-02T18:54:14.968Z,-5.50
2018-03-02T18:56:41.253Z,-5.60
2018-03-02T18:59:08.343Z,-5.70
2018-03-02T19:01:34.633Z,-5.70
2018-03-02T19:04:00.955Z,-5.50
2018-03-02T19:06:28.002Z,-5.80
2018-03-02T19:08:54.329Z,-5.80
2018-03-02T19:11:20.633Z,-5.70
2018-03-02T19:13:46.958Z,-5.70
2018-03-02T19:16:13.279Z,-6.00
2018-03-02T19:18:39.583Z,-5.90
2018-03-02T19:21:05.933Z,-6.00
2018-03-02T19:23:32.912Z,-6.00
2018-03-02T19:25:59.553Z,-6.20
2018-03-02T19:28:26.084Z,-6.10
2018-03-02T19:30:54.158Z,-6.00
2018-03-02T19:33:20.509Z,-6.00
2018-03-02T19:35:47.023Z,-6.10
2018-03-02T19:38:13.336Z,-6.00
2018-03-02T19:40:39.811Z,-6.10
2018-03-02T19:43:06.888Z,-6.20
2018-03-02T19:45:33.497Z,-6.30
2018-03-02T19:47:59.898Z,-6.30
2018-03-02T19:50:26.647Z,-6.50
2018-03-02T19:52:54.731Z,-6.50
2018-03-02T19:55:22.784Z,-6.30
2018-03-02T19:57:49.424Z,-6.30
2018-03-02T20:00:16.686Z,-6.40
2018-03-02T20:02:44.622Z,-6.70
2018-03-02T20:05:11.966Z,-6.50
2018-03-02T20:07:38.419Z,-6.60
2018-03-02T20:10:05.585Z,-6.60
2018-03-02T20:12:32.923Z,-6.80
2018-03-02T20:15:00.137Z,-6.60
2018-03-02T20:17:26.666Z,-6.70
2018-03-02T20:19:54.076Z,-6.70
2018-03-02T20:22:20.396Z,-6.80
2018-03-02T20:24:46.742Z,-6.50
2018-03-02T20:27:13.833Z,-6.70
2018-03-02T20:29:41.862Z,-6.70
2018-03-02T20:32:08.191Z,-6.80
2018-03-02T20:34:36.054Z,-6.90
2018-03-02T20:37:02.598Z,-6.90
2018-03-02T20:39:29.652Z,-6.80
2018-03-02T20:41:56.088Z,-6.90
2018-03-02T20:44:22.681Z,-6.70
2018-03-02T20:46:49.445Z,-6.80
2018-03-02T20:49:16.132Z,-6.80
2018-03-02T20:51:42.805Z,-6.80
2018-03-02T20:54:09.180Z,-7.10
2018-03-02T20:56:35.926Z,-7.00
2018-03-02T20:59:02.331Z,-6.80
2018-03-02T21:01:30.323Z,-6.90
2018-03-02T21:03:56.641Z,-6.90
2018-03-02T21:06:24.592Z,-6.90
2018-03-02T21:08:50.907Z,-6.90
2018-03-02T21:11:17.687Z,-6.90
2018-03-02T21:13:44.834Z,-7.00
2018-03-02T21:16:12.642Z,-7.00
2018-03-02T21:18:38.969Z,-7.00
2018-03-02T21:21:05.302Z,-7.10
2018-03-02T21:23:31.621Z,-7.30
2018-03-02T21:25:57.961Z,-7.30
2018-03-02T21:28:25.972Z,-7.20
2018-03-02T21:30:52.458Z,-7.30
2018-03-02T21:33:19.688Z,-7.50
2018-03-02T21:35:46.728Z,-7.50
2018-03-02T21:38:13.814Z,-7.50
2018-03-02T21:40:40.111Z,-7.50
2018-03-02T21:43:06.437Z,-7.50
2018-03-02T21:45:33.593Z,-7.50
2018-03-02T21:48:00.713Z,-7.50
2018-03-02T21:50:27.095Z,-7.60
2018-03-02T21:52:53.428Z,-7.50
2018-03-02T21:55:19.761Z,-7.20
2018-03-02T21:57:46.088Z,-7.20
2018-03-02T22:00:12.377Z,-7.30
2018-03-02T22:02:38.740Z,-7.40
2018-03-02T22:05:05.053Z,-7.30
2018-03-02T22:07:31.401Z,-7.40
2018-03-02T22:09:58.431Z,-7.30
2018-03-02T22:12:25.527Z,-7.60
2018-03-02T22:14:51.824Z,-7.60
2018-03-02T22:17:18.144Z,-7.50
2018-03-02T22:19:45.266Z,-7.50
2018-03-02T22:22:11.584Z,-7.60
2018-03-02T22:24:37.942Z,-7.50
2018-03-02T22:27:04.247Z,-7.60
2018-03-02T22:29:32.062Z,-7.70
2018-03-02T22:31:58.379Z,-7.80
2018-03-02T22:34:25.478Z,-7.70
2018-03-02T22:36:52.536Z,-7.70
2018-03-02T22:39:18.828Z,-7.70
2018-03-02T22:41:45.123Z,-7.70
2018-03-02T22:44:12.156Z,-7.90
2018-03-02T22:46:39.214Z,-8.00
2018-03-02T22:49:06.260Z,-8.00
2018-03-02T22:51:34.045Z,-8.10
2018-03-02T22:54:01.080Z,-7.90
2018-03-02T22:56:27.407Z,-8.00
2018-03-02T22:58:54.454Z,-8.10
2018-03-02T23:01:21.477Z,-8.10
2018-03-02T23:03:47.785Z,-8.20
2018-03-02T23:06:14.084Z,-8.20
2018-03-02T23:08:40.475Z,-8.10
2018-03-02T23:11:06.748Z,-8.00
2018-03-02T23:13:33.057Z,-8.00
2018-03-02T23:16:00.120Z,-8.00
2018-03-02T23:18:26.406Z,-8.10
2018-03-02T23:20:52.705Z,-8.00
2018-03-02T23:23:19.000Z,-8.10
2018-03-02T23:25:45.301Z,-8.10
2018-03-02T23:28:11.621Z,-8.00
2018-03-02T23:30:38.697Z,-8.20
2018-03-02T23:33:05.862Z,-8.10
2018-03-02T23:35:32.170Z,-8.20
2018-03-02T23:37:59.206Z,-8.10
2018-03-02T23:40:27.007Z,-8.30
2018-03-02T23:42:53.307Z,-8.30
2018-03-02T23:45:20.358Z,-8.30
2018-03-02T23:47:47.392Z,-8.30
2018-03-02T23:50:14.454Z,-8.30
2018-03-02T23:52:41.493Z,-8.20
2018-03-02T23:55:09.290Z,-8.30
2018-03-02T23:57:35.576Z,-8.20
